Time;durP1;ratioP1;P1;durP2;ratioP2;P2;SDS_P1;SDS_P2;PMS_P1;PMS_P2;Temp;Humidity;BMP_temperature;BMP_pressure;BME280_temperature;BME280_humidity;BME280_pressure;Samples;Min_cycle;Max_cycle;Signal;HPM_P1;HPM_P2
2024/03/01 00:00:55;;;;;;;36.40;32.50;;;;;;;;;;4958617;29;20213;-89
2024/03/01 00:03:22;;;;;;;36.20;32.35;;;;;;;;;;4961039;28;20234;-91
2024/03/01 00:05:50;;;;;;;36.83;31.75;;;;;;;;;;4978070;28;20210;-90
2024/03/01 00:08:19;;;;;;;36.78;32.80;;;;;;;;;;4977982;28;20920;-90
2024/03/01 00:10:46;;;;;;;38.97;33.47;;;;;;;;;;4977568;28;20289;-88
2024/03/01 00:13:13;;;;;;;48.08;35.38;;;;;;;;;;4977862;28;20652;-88
2024/03/01 00:15:39;;;;;;;39.83;33.72;;;;;;;;;;4977833;28;20199;-88
2024/03/01 00:18:07;;;;;;;41.58;33.80;;;;;;;;;;4978463;28;20238;-87
2024/03/01 00:20:34;;;;;;;39.33;33.25;;;;;;;;;;4978123;28;20640;-88
2024/03/01 00:23:02;;;;;;;42.03;34.75;;;;;;;;;;4977830;28;20878;-88
2024/03/01 00:25:29;;;;;;;38.95;32.80;;;;;;;;;;4978077;28;20203;-88
2024/03/01 00:27:56;;;;;;;37.60;32.83;;;;;;;;;;4977626;28;20211;-87
2024/03/01 00:30:24;;;;;;;44.72;33.33;;;;;;;;;;4977073;28;20675;-88
2024/03/01 00:32:51;;;;;;;42.38;33.83;;;;;;;;;;4977143;28;20339;-90
2024/03/01 00:35:18;;;;;;;45.47;35.38;;;;;;;;;;4977521;28;20606;-90
2024/03/01 00:37:45;;;;;;;40.40;35.22;;;;;;;;;;4976942;28;20211;-90
2024/03/01 00:40:13;;;;;;;41.53;34.35;;;;;;;;;;4977110;28;20566;-90
2024/03/01 00:42:40;;;;;;;43.85;35.75;;;;;;;;;;4977385;28;20203;-89
2024/03/01 00:45:07;;;;;;;51.25;36.13;;;;;;;;;;4977440;28;20761;-90
2024/03/01 00:47:34;;;;;;;39.95;35.13;;;;;;;;;;4977037;28;20210;-89
2024/03/01 00:50:02;;;;;;;47.40;35.75;;;;;;;;;;4977647;28;20203;-90
2024/03/01 00:52:29;;;;;;;43.47;34.05;;;;;;;;;;4976951;28;20254;-91
2024/03/01 00:54:56;;;;;;;44.10;34.97;;;;;;;;;;4977035;28;20250;-90
2024/03/01 00:57:24;;;;;;;51.42;36.83;;;;;;;;;;4976895;28;20301;-90
2024/03/01 00:59:51;;;;;;;47.53;36.25;;;;;;;;;;4976886;28;20215;-90
2024/03/01 01:02:18;;;;;;;47.95;35.80;;;;;;;;;;4976035;28;20206;-90
2024/03/01 01:04:45;;;;;;;48.47;35.97;;;;;;;;;;4976446;28;20599;-89
2024/03/01 01:07:12;;;;;;;39.67;34.13;;;;;;;;;;4976823;28;20195;-90
2024/03/01 01:09:39;;;;;;;47.47;39.05;;;;;;;;;;4976979;28;20261;-90
2024/03/01 01:12:06;;;;;;;43.60;34.42;;;;;;;;;;4976636;28;20210;-90
2024/03/01 01:14:35;;;;;;;51.88;39.03;;;;;;;;;;4977064;28;20317;-89
2024/03/01 01:17:02;;;;;;;47.25;34.33;;;;;;;;;;4976769;28;20285;-90
2024/03/01 01:19:29;;;;;;;41.95;35.75;;;;;;;;;;4976674;28;20218;-90
2024/03/01 01:21:56;;;;;;;45.58;34.55;;;;;;;;;;4975939;28;20207;-90
2024/03/01 01:24:23;;;;;;;45.22;35.50;;;;;;;;;;4976480;28;20219;-90
2024/03/01 01:26:50;;;;;;;46.92;36.13;;;;;;;;;;4976882;28;20219;-90
2024/03/01 01:29:17;;;;;;;40.72;35.78;;;;;;;;;;4976646;28;20258;-89
2024/03/01 01:31:46;;;;;;;45.85;38.17;;;;;;;;;;4975776;28;20207;-89
2024/03/01 01:34:13;;;;;;;46.28;34.83;;;;;;;;;;4976095;28;20691;-90
2024/03/01 01:36:40;;;;;;;49.55;37.55;;;;;;;;;;4976182;28;20599;-90
2024/03/01 01:39:08;;;;;;;46.40;35.97;;;;;;;;;;4976039;28;20203;-90
2024/03/01 01:41:35;;;;;;;44.00;37.55;;;;;;;;;;4975105;28;20286;-90
2024/03/01 01:44:02;;;;;;;45.58;35.75;;;;;;;;;;4975796;28;20225;-89
2024/03/01 01:46:29;;;;;;;52.88;37.80;;;;;;;;;;4976201;28;20257;-90
2024/03/01 01:48:58;;;;;;;48.28;37.42;;;;;;;;;;4976163;28;20211;-90
2024/03/01 01:51:25;;;;;;;48.80;38.35;;;;;;;;;;4975904;28;20207;-90
2024/03/01 01:53:52;;;;;;;49.53;37.70;;;;;;;;;;4975784;28;20231;-89
2024/03/01 01:56:19;;;;;;;50.65;37.92;;;;;;;;;;4976159;28;20222;-90
2024/03/01 01:58:47;;;;;;;48.22;37.17;;;;;;;;;;4976193;28;20323;-90
2024/03/01 02:01:15;;;;;;;58.80;41.60;;;;;;;;;;4975161;28;20207;-90
2024/03/01 02:03:42;;;;;;;51.15;39.45;;;;;;;;;;4975835;28;20301;-90
2024/03/01 02:06:11;;;;;;;48.00;35.50;;;;;;;;;;4975988;28;20599;-90
2024/03/01 02:08:39;;;;;;;46.55;40.38;;;;;;;;;;4975793;28;20214;-90
2024/03/01 02:11:06;;;;;;;53.00;38.10;;;;;;;;;;4974900;28;20195;-90
2024/03/01 02:13:33;;;;;;;46.45;38.38;;;;;;;;;;4975145;28;20333;-90
2024/03/01 02:16:01;;;;;;;49.70;39.40;;;;;;;;;;4975692;28;20632;-90
2024/03/01 02:18:28;;;;;;;52.25;38.63;;;;;;;;;;4976135;28;20221;-89
2024/03/01 02:21:01;;;;;;;59.35;42.20;;;;;;;;;;4975152;28;20566;-90
2024/03/01 02:23:30;;;;;;;56.55;39.75;;;;;;;;;;4975234;28;20967;-90
2024/03/01 02:25:57;;;;;;;57.70;39.30;;;;;;;;;;4975626;28;20205;-90
2024/03/01 02:28:24;;;;;;;50.08;38.88;;;;;;;;;;4975798;28;20199;-90
2024/03/01 02:30:52;;;;;;;57.03;40.38;;;;;;;;;;4974950;28;20606;-90
2024/03/01 02:33:19;;;;;;;50.17;38.33;;;;;;;;;;4955965;28;20233;-90
2024/03/01 02:35:46;;;;;;;57.70;39.30;;;;;;;;;;4956059;29;20210;-88
2024/03/01 02:38:13;;;;;;;50.90;37.08;;;;;;;;;;4955853;29;20203;-88
2024/03/01 02:40:41;;;;;;;54.00;38.72;;;;;;;;;;4967199;28;20215;-88
2024/03/01 02:43:08;;;;;;;52.55;39.92;;;;;;;;;;4975560;28;20227;-89
2024/03/01 02:45:36;;;;;;;55.95;39.20;;;;;;;;;;4975635;28;20210;-88
2024/03/01 02:48:03;;;;;;;54.67;38.22;;;;;;;;;;4975114;28;20238;-89
2024/03/01 02:50:30;;;;;;;46.20;34.78;;;;;;;;;;4974597;28;20207;-89
2024/03/01 02:52:57;;;;;;;51.00;37.50;;;;;;;;;;4974393;28;20234;-88
2024/03/01 02:55:24;;;;;;;46.50;35.65;;;;;;;;;;4975381;28;20286;-88
2024/03/01 02:57:53;;;;;;;52.17;36.55;;;;;;;;;;4975476;28;20207;-87
2024/03/01 03:00:21;;;;;;;45.60;34.83;;;;;;;;;;4975070;28;20199;-88
2024/03/01 03:02:48;;;;;;;47.78;34.55;;;;;;;;;;4974739;28;20211;-90
2024/03/01 03:05:15;;;;;;;51.70;37.33;;;;;;;;;;4975090;28;20219;-90
2024/03/01 03:07:42;;;;;;;50.45;36.85;;;;;;;;;;4974992;28;20218;-90
2024/03/01 03:10:10;;;;;;;51.17;37.83;;;;;;;;;;4974764;28;20203;-90
2024/03/01 03:12:38;;;;;;;51.80;37.20;;;;;;;;;;4974674;28;20585;-88
2024/03/01 03:15:08;;;;;;;49.67;37.90;;;;;;;;;;4974975;28;20223;-88
2024/03/01 03:17:35;;;;;;;57.28;38.75;;;;;;;;;;4975360;28;20207;-88
2024/03/01 03:20:09;;;;;;;52.60;35.65;;;;;;;;;;4974603;28;20298;-88
2024/03/01 03:22:37;;;;;;;53.47;35.28;;;;;;;;;;4974710;28;20238;-88
2024/03/01 03:25:04;;;;;;;51.08;38.00;;;;;;;;;;4974983;28;20226;-89
2024/03/01 03:27:31;;;;;;;55.22;37.88;;;;;;;;;;4975227;28;20210;-88
2024/03/01 03:29:59;;;;;;;52.45;39.17;;;;;;;;;;4978723;28;20207;-91
2024/03/01 03:32:27;;;;;;;45.67;36.70;;;;;;;;;;4985511;28;20204;-89
2024/03/01 03:34:54;;;;;;;56.22;39.80;;;;;;;;;;4977892;28;20259;-89
2024/03/01 03:37:21;;;;;;;49.80;39.13;;;;;;;;;;4975544;28;20235;-88
2024/03/01 03:39:48;;;;;;;49.80;38.83;;;;;;;;;;4955034;29;20204;-88
2024/03/01 03:42:15;;;;;;;49.08;36.25;;;;;;;;;;4954839;29;20200;-88
2024/03/01 03:44:42;;;;;;;48.45;38.22;;;;;;;;;;4954646;28;20250;-88
2024/03/01 03:47:09;;;;;;;56.05;37.85;;;;;;;;;;4954994;29;20208;-89
2024/03/01 03:49:38;;;;;;;48.95;37.53;;;;;;;;;;4954599;29;20200;-88
2024/03/01 03:52:05;;;;;;;47.78;36.60;;;;;;;;;;4954276;29;20204;-89
2024/03/01 03:54:32;;;;;;;47.35;36.00;;;;;;;;;;4954417;28;20238;-87
2024/03/01 03:56:59;;;;;;;48.83;37.08;;;;;;;;;;4969696;28;20214;-88
2024/03/01 03:59:26;;;;;;;49.50;35.72;;;;;;;;;;4974536;28;20199;-89
2024/03/01 04:01:53;;;;;;;51.22;36.40;;;;;;;;;;4974126;28;20199;-89
2024/03/01 04:04:20;;;;;;;53.28;39.17;;;;;;;;;;4974440;28;20246;-88
2024/03/01 04:06:49;;;;;;;53.97;38.05;;;;;;;;;;4978100;28;20233;-88
2024/03/01 04:09:17;;;;;;;49.63;38.10;;;;;;;;;;4978136;28;20872;-89
2024/03/01 04:11:44;;;;;;;49.10;37.22;;;;;;;;;;4977852;28;20560;-88
2024/03/01 04:14:11;;;;;;;52.88;38.97;;;;;;;;;;4977651;28;20230;-87
2024/03/01 04:16:38;;;;;;;50.13;37.95;;;;;;;;;;4977837;28;20257;-88
2024/03/01 04:19:08;;;;;;;48.20;37.65;;;;;;;;;;4977622;28;20686;-88
2024/03/01 04:21:36;;;;;;;51.00;37.33;;;;;;;;;;4977204;28;20198;-87
2024/03/01 04:24:08;;;;;;;51.33;38.20;;;;;;;;;;4977215;28;20342;-88
2024/03/01 04:26:35;;;;;;;58.13;38.55;;;;;;;;;;4977749;28;20193;-89
2024/03/01 04:29:02;;;;;;;55.72;41.92;;;;;;;;;;4966476;28;20267;-88
2024/03/01 04:31:30;;;;;;;65.50;41.55;;;;;;;;;;4958131;29;20668;-88
2024/03/01 04:33:57;;;;;;;46.20;39.58;;;;;;;;;;4958101;28;20269;-88
2024/03/01 04:36:24;;;;;;;53.15;38.70;;;;;;;;;;4958364;29;20231;-87
2024/03/01 04:38:51;;;;;;;51.17;40.67;;;;;;;;;;4958413;29;20290;-88
2024/03/01 04:41:20;;;;;;;55.83;38.30;;;;;;;;;;4968103;28;20917;-88
2024/03/01 04:43:47;;;;;;;54.47;39.67;;;;;;;;;;4977513;28;20304;-88
2024/03/01 04:46:14;;;;;;;48.58;39.45;;;;;;;;;;4977225;28;20195;-88
2024/03/01 04:48:41;;;;;;;52.85;39.53;;;;;;;;;;4977040;28;20207;-88
2024/03/01 04:51:12;;;;;;;51.92;39.13;;;;;;;;;;4976954;28;20194;-88
2024/03/01 04:53:39;;;;;;;55.60;39.63;;;;;;;;;;4976951;28;20258;-88
2024/03/01 04:56:08;;;;;;;49.83;36.78;;;;;;;;;;4976895;28;20540;-88
2024/03/01 04:58:37;;;;;;;57.72;38.65;;;;;;;;;;4977018;28;20310;-88
2024/03/01 05:01:04;;;;;;;52.78;37.28;;;;;;;;;;4976897;28;20881;-89
2024/03/01 05:03:32;;;;;;;44.13;36.17;;;;;;;;;;4977535;28;20282;-88
2024/03/01 05:05:59;;;;;;;54.78;38.03;;;;;;;;;;4977342;28;20207;-88
2024/03/01 05:08:27;;;;;;;49.03;35.97;;;;;;;;;;4977116;28;20215;-88
2024/03/01 05:10:54;;;;;;;52.28;38.05;;;;;;;;;;4977026;28;20213;-88
2024/03/01 05:13:22;;;;;;;51.50;37.47;;;;;;;;;;4976820;28;20709;-88
2024/03/01 05:15:50;;;;;;;54.05;38.97;;;;;;;;;;4976992;28;20286;-88
2024/03/01 05:18:18;;;;;;;49.88;37.45;;;;;;;;;;4976837;28;20195;-88
2024/03/01 05:20:45;;;;;;;51.22;36.95;;;;;;;;;;4976659;28;20213;-88
2024/03/01 05:23:12;;;;;;;47.17;35.38;;;;;;;;;;4976451;28;20566;-88
2024/03/01 05:25:42;;;;;;;53.38;38.78;;;;;;;;;;4976700;28;20257;-90
2024/03/01 05:28:09;;;;;;;49.72;37.50;;;;;;;;;;4976490;28;20211;-88
2024/03/01 05:30:36;;;;;;;47.95;35.95;;;;;;;;;;4976418;28;20579;-88
2024/03/01 05:33:06;;;;;;;54.10;37.92;;;;;;;;;;4976335;28;20199;-88
2024/03/01 05:35:34;;;;;;;49.42;35.10;;;;;;;;;;4976550;28;20246;-88
2024/03/01 05:38:02;;;;;;;51.70;36.33;;;;;;;;;;4976636;28;20231;-88
2024/03/01 05:40:29;;;;;;;48.33;36.30;;;;;;;;;;4976498;28;20294;-87
2024/03/01 05:42:56;;;;;;;52.85;35.95;;;;;;;;;;4976013;28;20632;-88
2024/03/01 05:45:23;;;;;;;45.03;34.30;;;;;;;;;;4976360;28;20270;-88
2024/03/01 05:47:51;;;;;;;51.47;37.42;;;;;;;;;;4976348;28;20203;-88
2024/03/01 05:50:20;;;;;;;46.97;35.70;;;;;;;;;;4976086;28;20203;-88
2024/03/01 05:52:47;;;;;;;47.83;35.90;;;;;;;;;;4975401;28;20294;-87
2024/03/01 05:55:14;;;;;;;47.10;34.85;;;;;;;;;;4975893;28;20234;-88
2024/03/01 05:57:41;;;;;;;46.20;34.22;;;;;;;;;;4976133;28;20198;-88
2024/03/01 06:00:17;;;;;;;43.95;35.25;;;;;;;;;;4976224;28;20199;-88
2024/03/01 06:02:44;;;;;;;50.05;35.20;;;;;;;;;;4975970;28;20207;-88
2024/03/01 06:05:11;;;;;;;46.13;35.20;;;;;;;;;;4975977;28;20630;-88
2024/03/01 06:07:40;;;;;;;47.47;35.15;;;;;;;;;;4975990;28;20306;-88
2024/03/01 06:10:08;;;;;;;46.80;35.97;;;;;;;;;;4975879;28;20199;-88
2024/03/01 06:12:35;;;;;;;47.05;35.00;;;;;;;;;;4975053;28;20223;-88
2024/03/01 06:15:02;;;;;;;42.42;33.08;;;;;;;;;;4975540;28;20223;-88
2024/03/01 06:17:29;;;;;;;42.88;34.80;;;;;;;;;;4975802;28;20211;-88
2024/03/01 06:19:56;;;;;;;40.45;34.72;;;;;;;;;;4975540;28;20885;-89
2024/03/01 06:22:23;;;;;;;42.33;33.00;;;;;;;;;;4974511;28;20671;-89
2024/03/01 06:24:51;;;;;;;37.58;31.70;;;;;;;;;;4975133;28;20281;-88
2024/03/01 06:27:18;;;;;;;41.03;32.90;;;;;;;;;;4974832;28;20702;-88
2024/03/01 06:29:45;;;;;;;44.40;35.13;;;;;;;;;;4974580;28;20207;-88
2024/03/01 06:32:12;;;;;;;42.00;33.25;;;;;;;;;;4974892;28;20660;-88
2024/03/01 06:34:40;;;;;;;43.25;35.47;;;;;;;;;;4975498;28;20231;-88
2024/03/01 06:37:07;;;;;;;37.40;32.65;;;;;;;;;;4974743;28;20545;-88
2024/03/01 06:39:34;;;;;;;40.55;34.38;;;;;;;;;;4975307;28;20230;-88
2024/03/01 06:42:03;;;;;;;40.72;32.53;;;;;;;;;;4974863;28;20253;-88
2024/03/01 06:44:30;;;;;;;42.65;34.70;;;;;;;;;;4975221;28;20557;-88
2024/03/01 06:46:57;;;;;;;41.97;33.42;;;;;;;;;;4975320;28;20215;-88
2024/03/01 06:49:24;;;;;;;40.28;32.75;;;;;;;;;;4976970;28;20199;-84
2024/03/01 06:51:52;;;;;;;42.75;34.10;;;;;;;;;;4978159;28;20205;-82
2024/03/01 06:54:19;;;;;;;44.83;33.63;;;;;;;;;;4977896;28;20223;-83
2024/03/01 06:56:47;;;;;;;44.35;33.85;;;;;;;;;;4976292;28;20603;-88
2024/03/01 06:59:15;;;;;;;40.92;34.17;;;;;;;;;;4975460;28;20210;-88
2024/03/01 07:01:42;;;;;;;39.80;33.15;;;;;;;;;;4975523;28;20207;-83
2024/03/01 07:04:09;;;;;;;36.20;30.17;;;;;;;;;;4977909;28;20662;-84
2024/03/01 07:06:36;;;;;;;41.53;34.50;;;;;;;;;;4978349;28;20210;-82
2024/03/01 07:09:04;;;;;;;42.63;33.58;;;;;;;;;;4962096;28;20434;-84
2024/03/01 07:11:31;;;;;;;40.43;33.20;;;;;;;;;;4971141;28;20241;-84
2024/03/01 07:13:58;;;;;;;36.20;31.73;;;;;;;;;;4977056;28;20533;-84
2024/03/01 07:16:27;;;;;;;38.63;31.90;;;;;;;;;;4977559;28;20218;-83
2024/03/01 07:18:54;;;;;;;40.63;33.03;;;;;;;;;;4977682;28;20442;-83
2024/03/01 07:21:21;;;;;;;38.17;33.80;;;;;;;;;;4977289;28;20948;-84
2024/03/01 07:23:48;;;;;;;36.83;32.53;;;;;;;;;;4977376;28;21037;-83
2024/03/01 07:26:15;;;;;;;43.33;33.85;;;;;;;;;;4977909;28;20450;-84
2024/03/01 07:28:43;;;;;;;39.73;34.27;;;;;;;;;;4977282;28;20198;-83
2024/03/01 07:31:10;;;;;;;34.50;29.17;;;;;;;;;;4986236;28;20445;-84
2024/03/01 07:33:38;;;;;;;38.63;34.53;;;;;;;;;;4991709;28;20450;-85
2024/03/01 07:36:06;;;;;;;38.22;32.30;;;;;;;;;;4993029;28;20494;-84
2024/03/01 07:38:33;;;;;;;35.60;32.00;;;;;;;;;;4987031;28;20213;-85
2024/03/01 07:41:00;;;;;;;43.53;33.30;;;;;;;;;;4977106;28;20454;-83
2024/03/01 07:43:27;;;;;;;53.10;38.20;;;;;;;;;;4964544;28;20223;-84
2024/03/01 07:45:54;;;;;;;46.77;35.17;;;;;;;;;;4964036;29;20451;-84
2024/03/01 07:48:21;;;;;;;41.63;34.43;;;;;;;;;;4964239;29;20594;-84
2024/03/01 07:50:50;;;;;;;37.17;32.23;;;;;;;;;;4963431;29;20440;-84
2024/03/01 07:53:17;;;;;;;34.77;30.53;;;;;;;;;;4971189;28;20489;-89
2024/03/01 07:55:44;;;;;;;33.10;29.60;;;;;;;;;;4965951;28;20483;-88
2024/03/01 07:58:11;;;;;;;33.27;30.00;;;;;;;;;;4960121;29;20490;-87
2024/03/01 08:00:38;;;;;;;33.43;29.80;;;;;;;;;;4964171;28;20454;-85
2024/03/01 08:03:09;;;;;;;33.50;30.10;;;;;;;;;;4982103;28;20454;-85
2024/03/01 08:05:36;;;;;;;31.60;28.30;;;;;;;;;;4983356;28;20906;-84
2024/03/01 08:08:05;;;;;;;35.30;28.63;;;;;;;;;;4982567;28;20461;-85
2024/03/01 08:10:33;;;;;;;33.30;29.37;;;;;;;;;;4982868;28;20942;-87
2024/03/01 08:13:01;;;;;;;31.50;28.13;;;;;;;;;;4982307;28;20426;-84
2024/03/01 08:15:29;;;;;;;30.77;27.57;;;;;;;;;;4982194;28;20547;-84
2024/03/01 08:17:56;;;;;;;31.27;27.80;;;;;;;;;;4982364;28;20451;-85
2024/03/01 08:20:44;;;;;;;30.40;27.40;;;;;;;;;;4982716;28;20465;-85
2024/03/01 08:26:26;;;;;;;28.67;26.00;;;;;;;;;;4962590;29;20451;-84
2024/03/01 08:28:57;;;;;;;29.37;26.30;;;;;;;;;;4963054;29;20946;-87
2024/03/01 08:31:26;;;;;;;26.03;23.70;;;;;;;;;;4966360;28;20540;-80
2024/03/01 08:37:17;;;;;;;28.00;25.47;;;;;;;;;;4969728;28;20494;-80
2024/03/01 08:39:46;;;;;;;26.73;24.33;;;;;;;;;;4960398;29;20458;-85
2024/03/01 08:42:14;;;;;;;28.63;25.83;;;;;;;;;;4983484;28;20462;-81
2024/03/01 08:44:59;;;;;;;28.67;25.97;;;;;;;;;;5000032;28;20527;-81
2024/03/01 08:47:27;;;;;;;25.87;23.60;;;;;;;;;;4995656;28;20460;-83
2024/03/01 08:50:21;;;;;;;26.47;24.20;;;;;;;;;;4980790;28;21022;-81
2024/03/01 08:52:49;;;;;;;26.67;24.30;;;;;;;;;;4980068;28;20411;-83
2024/03/01 08:55:35;;;;;;;26.37;23.90;;;;;;;;;;4979293;28;20505;-82
2024/03/01 08:58:03;;;;;;;25.87;23.40;;;;;;;;;;4960353;29;20460;-79
2024/03/01 09:00:37;;;;;;;28.30;26.00;;;;;;;;;;4956116;29;20450;-79
2024/03/01 09:03:04;;;;;;;28.03;25.40;;;;;;;;;;4956079;28;20530;-79
2024/03/01 09:05:32;;;;;;;28.73;26.17;;;;;;;;;;4955606;29;20502;-78
2024/03/01 09:08:00;;;;;;;27.60;24.97;;;;;;;;;;4955738;29;20959;-79
2024/03/01 09:10:28;;;;;;;27.93;25.23;;;;;;;;;;4955785;29;20792;-79
2024/03/01 09:12:55;;;;;;;27.50;25.23;;;;;;;;;;4955110;28;20451;-77
2024/03/01 09:15:24;;;;;;;28.30;25.67;;;;;;;;;;4956156;29;20565;-79
2024/03/01 09:17:52;;;;;;;26.93;24.57;;;;;;;;;;4967625;28;20454;-78
2024/03/01 09:20:30;;;;;;;27.17;24.57;;;;;;;;;;4956338;29;20506;-78
2024/03/01 09:22:57;;;;;;;28.63;26.00;;;;;;;;;;4957660;28;20498;-79
2024/03/01 09:25:45;;;;;;;35.53;24.70;;;;;;;;;;4972834;28;20946;-79
2024/03/01 09:28:14;;;;;;;27.50;25.30;;;;;;;;;;4958252;28;20533;-79
2024/03/01 09:30:42;;;;;;;28.13;25.40;;;;;;;;;;4955840;28;20459;-80
2024/03/01 09:33:10;;;;;;;26.63;23.93;;;;;;;;;;4956641;28;20467;-78
2024/03/01 09:35:37;;;;;;;25.43;23.37;;;;;;;;;;4971900;28;20515;-84
2024/03/01 09:38:04;;;;;;;22.90;21.20;;;;;;;;;;4979403;28;20946;-81
2024/03/01 09:40:54;;;;;;;24.00;22.20;;;;;;;;;;4979028;28;20529;-82
2024/03/01 09:43:27;;;;;;;22.60;20.97;;;;;;;;;;4979755;28;20504;-82
2024/03/01 09:45:59;;;;;;;24.43;22.43;;;;;;;;;;4980653;28;20431;-83
2024/03/01 09:48:37;;;;;;;23.00;21.30;;;;;;;;;;4980598;28;20533;-82
2024/03/01 09:51:08;;;;;;;22.53;20.90;;;;;;;;;;4980775;28;20457;-83
2024/03/01 09:53:44;;;;;;;20.50;19.10;;;;;;;;;;4980885;28;20473;-82
2024/03/01 09:56:12;;;;;;;23.27;21.60;;;;;;;;;;4981379;28;21033;-83
2024/03/01 09:58:44;;;;;;;22.10;20.60;;;;;;;;;;4981329;28;20858;-84
2024/03/01 10:01:15;;;;;;;22.00;20.57;;;;;;;;;;4981272;28;20439;-83
2024/03/01 10:03:48;;;;;;;23.27;21.30;;;;;;;;;;4980508;28;20536;-85
2024/03/01 10:06:32;;;;;;;21.10;19.70;;;;;;;;;;4981876;28;20431;-85
2024/03/01 10:09:07;;;;;;;21.67;19.97;;;;;;;;;;4980726;28;20405;-84
2024/03/01 10:11:39;;;;;;;22.53;20.83;;;;;;;;;;4978847;28;20430;-85
2024/03/01 10:14:16;;;;;;;20.73;19.20;;;;;;;;;;4976482;28;20454;-86
2024/03/01 10:16:51;;;;;;;23.10;21.27;;;;;;;;;;4977558;28;20882;-81
2024/03/01 10:19:34;;;;;;;20.23;18.93;;;;;;;;;;4979335;28;20493;-81
2024/03/01 10:22:09;;;;;;;18.90;17.87;;;;;;;;;;4978335;28;20416;-82
2024/03/01 10:24:44;;;;;;;22.00;20.20;;;;;;;;;;4978193;28;20544;-83
2024/03/01 10:27:15;;;;;;;24.10;22.40;;;;;;;;;;4978956;28;20456;-82
2024/03/01 10:29:50;;;;;;;21.07;19.20;;;;;;;;;;4986957;28;20480;-82
2024/03/01 10:32:24;;;;;;;23.57;21.40;;;;;;;;;;4997070;28;20569;-82
2024/03/01 10:34:54;;;;;;;21.93;20.43;;;;;;;;;;4998302;28;20457;-84
2024/03/01 10:37:27;;;;;;;19.70;18.50;;;;;;;;;;4991450;28;20550;-83
2024/03/01 10:39:56;;;;;;;21.63;19.83;;;;;;;;;;4978524;28;20435;-82
2024/03/01 10:42:25;;;;;;;22.20;20.50;;;;;;;;;;4978698;28;20446;-83
2024/03/01 10:44:54;;;;;;;22.10;20.20;;;;;;;;;;4979033;28;20478;-82
2024/03/01 10:47:23;;;;;;;20.27;19.00;;;;;;;;;;4969194;28;20470;-81
2024/03/01 10:50:01;;;;;;;22.00;20.60;;;;;;;;;;4970223;28;20436;-84
2024/03/01 10:52:33;;;;;;;21.20;19.57;;;;;;;;;;4978122;28;20990;-83
2024/03/01 10:55:00;;;;;;;20.53;19.23;;;;;;;;;;4978749;28;20469;-83
2024/03/01 10:57:28;;;;;;;23.63;21.83;;;;;;;;;;4978044;28;20508;-81
2024/03/01 10:59:57;;;;;;;22.73;21.20;;;;;;;;;;4989582;28;20467;-82
2024/03/01 11:02:28;;;;;;;19.80;18.60;;;;;;;;;;4988000;28;20462;-85
2024/03/01 11:05:03;;;;;;;22.33;20.83;;;;;;;;;;4978560;28;21002;-83
2024/03/01 11:07:36;;;;;;;23.30;21.70;;;;;;;;;;4978312;28;20439;-85
2024/03/01 11:10:06;;;;;;;22.93;21.53;;;;;;;;;;4984205;28;20469;-81
2024/03/01 11:12:36;;;;;;;22.53;21.00;;;;;;;;;;4981602;28;20546;-83
2024/03/01 11:15:07;;;;;;;22.80;21.17;;;;;;;;;;4978187;28;20470;-81
2024/03/01 11:17:36;;;;;;;27.73;25.53;;;;;;;;;;4978160;28;20922;-82
2024/03/01 11:20:10;;;;;;;26.50;24.23;;;;;;;;;;4994442;28;20433;-83
2024/03/01 11:22:38;;;;;;;30.60;28.30;;;;;;;;;;4958425;29;20462;-82
2024/03/01 11:25:09;;;;;;;29.87;27.57;;;;;;;;;;4964219;28;20505;-80
2024/03/01 11:27:41;;;;;;;28.10;25.90;;;;;;;;;;4966086;28;20456;-80
2024/03/01 11:30:10;;;;;;;29.73;27.27;;;;;;;;;;4973577;28;20453;-81
2024/03/01 11:32:42;;;;;;;29.87;26.67;;;;;;;;;;4985649;28;20521;-81
2024/03/01 11:35:15;;;;;;;32.90;30.03;;;;;;;;;;4989488;28;20532;-81
2024/03/01 11:37:50;;;;;;;31.40;28.60;;;;;;;;;;4983999;28;20523;-80
2024/03/01 11:40:23;;;;;;;20.87;19.37;;;;;;;;;;4977524;28;20416;-82
2024/03/01 11:43:01;;;;;;;30.23;27.53;;;;;;;;;;4976205;28;20441;-81
2024/03/01 11:45:32;;;;;;;32.63;29.53;;;;;;;;;;4976431;28;20505;-80
2024/03/01 11:48:07;;;;;;;33.13;30.33;;;;;;;;;;4984729;28;20984;-80
2024/03/01 11:50:54;;;;;;;32.10;29.10;;;;;;;;;;4992712;28;20441;-80
2024/03/01 11:53:27;;;;;;;32.80;30.00;;;;;;;;;;4976998;28;20489;-80
2024/03/01 11:56:01;;;;;;;33.33;30.40;;;;;;;;;;4976829;28;20588;-81
2024/03/01 11:58:30;;;;;;;32.50;29.60;;;;;;;;;;4977310;28;20495;-80
2024/03/01 12:01:04;;;;;;;33.30;30.40;;;;;;;;;;4976625;28;20450;-80
2024/03/01 12:03:46;;;;;;;31.53;28.63;;;;;;;;;;4977981;28;20488;-80
2024/03/01 12:06:19;;;;;;;30.77;28.27;;;;;;;;;;4953947;28;20461;-82
2024/03/01 12:08:54;;;;;;;32.27;29.37;;;;;;;;;;4976676;28;20489;-80
2024/03/01 12:11:24;;;;;;;32.57;29.97;;;;;;;;;;4975972;28;20452;-80
2024/03/01 12:13:52;;;;;;;30.60;27.90;;;;;;;;;;4976606;28;20474;-82
2024/03/01 12:16:26;;;;;;;32.23;29.67;;;;;;;;;;4982408;28;20543;-81
2024/03/01 12:19:00;;;;;;;33.23;30.47;;;;;;;;;;4996180;28;20434;-80
2024/03/01 12:21:35;;;;;;;33.87;30.97;;;;;;;;;;4996019;28;20500;-82
2024/03/01 12:24:07;;;;;;;34.40;31.43;;;;;;;;;;4996280;28;20837;-78
2024/03/01 12:26:40;;;;;;;32.87;29.97;;;;;;;;;;4977725;28;20442;-82
2024/03/01 12:29:15;;;;;;;32.00;29.20;;;;;;;;;;4980578;28;20441;-83
2024/03/01 12:31:49;;;;;;;25.07;23.10;;;;;;;;;;4979858;28;20452;-80
2024/03/01 12:34:27;;;;;;;32.80;30.07;;;;;;;;;;4974076;28;20489;-80
2024/03/01 12:37:00;;;;;;;31.47;28.97;;;;;;;;;;4959289;29;20483;-81
2024/03/01 12:39:29;;;;;;;30.77;28.23;;;;;;;;;;4960546;29;20443;-81
2024/03/01 12:42:06;;;;;;;31.50;29.00;;;;;;;;;;4960340;29;20451;-80
2024/03/01 12:44:41;;;;;;;27.80;25.60;;;;;;;;;;4958714;28;20474;-80
2024/03/01 12:47:18;;;;;;;28.77;26.67;;;;;;;;;;4984956;28;20491;-79
2024/03/01 12:49:55;;;;;;;30.93;28.37;;;;;;;;;;4998196;28;20408;-80
2024/03/01 12:52:33;;;;;;;29.77;27.33;;;;;;;;;;4998063;28;20421;-79
2024/03/01 12:55:06;;;;;;;27.77;25.77;;;;;;;;;;4998040;28;20474;-79
2024/03/01 12:57:37;;;;;;;28.37;26.20;;;;;;;;;;4999292;28;20538;-79
2024/03/01 13:00:13;;;;;;;27.10;24.90;;;;;;;;;;4998357;28;20425;-81
2024/03/01 13:02:57;;;;;;;26.33;24.47;;;;;;;;;;4997600;28;20492;-80
2024/03/01 13:05:26;;;;;;;27.30;25.07;;;;;;;;;;4991220;28;20515;-80
2024/03/01 13:07:56;;;;;;;27.60;25.47;;;;;;;;;;4998271;28;20930;-81
2024/03/01 13:10:24;;;;;;;28.53;26.43;;;;;;;;;;4998066;28;20428;-79
2024/03/01 13:12:56;;;;;;;25.90;24.10;;;;;;;;;;4997977;28;20453;-81
2024/03/01 13:15:25;;;;;;;26.00;24.20;;;;;;;;;;4997776;28;20496;-79
2024/03/01 13:18:00;;;;;;;26.20;24.23;;;;;;;;;;4997965;28;20484;-80
2024/03/01 13:20:31;;;;;;;26.00;24.13;;;;;;;;;;4998307;28;20441;-81
2024/03/01 13:23:08;;;;;;;27.43;25.50;;;;;;;;;;4996030;28;20457;-81
2024/03/01 13:25:38;;;;;;;26.00;24.10;;;;;;;;;;4997877;28;20452;-80
2024/03/01 13:28:14;;;;;;;24.93;23.17;;;;;;;;;;4998993;28;20581;-81
2024/03/01 13:30:41;;;;;;;24.33;22.73;;;;;;;;;;4996553;28;20443;-82
2024/03/01 13:33:12;;;;;;;25.43;23.63;;;;;;;;;;4997484;28;20512;-79
2024/03/01 13:35:44;;;;;;;25.77;23.77;;;;;;;;;;4997097;28;20435;-81
2024/03/01 13:38:16;;;;;;;26.97;25.07;;;;;;;;;;4995985;28;20922;-81
2024/03/01 13:40:50;;;;;;;24.43;22.50;;;;;;;;;;4997217;28;21012;-80
2024/03/01 13:43:23;;;;;;;26.37;24.43;;;;;;;;;;4998585;28;20473;-80
2024/03/01 13:45:52;;;;;;;25.70;23.80;;;;;;;;;;4996088;28;20453;-81
2024/03/01 13:48:22;;;;;;;26.70;24.80;;;;;;;;;;4982545;28;20481;-80
2024/03/01 13:50:49;;;;;;;26.60;24.80;;;;;;;;;;4998423;28;20453;-80
2024/03/01 13:53:18;;;;;;;25.57;23.63;;;;;;;;;;4997981;28;20477;-81
2024/03/01 13:55:47;;;;;;;27.50;25.30;;;;;;;;;;4997942;28;20452;-81
2024/03/01 13:58:15;;;;;;;27.50;25.40;;;;;;;;;;4990294;28;20494;-80
2024/03/01 14:00:49;;;;;;;28.13;25.83;;;;;;;;;;4977178;28;20461;-80
2024/03/01 14:03:16;;;;;;;25.63;23.73;;;;;;;;;;4977737;28;20482;-79
2024/03/01 14:05:44;;;;;;;24.03;22.03;;;;;;;;;;4991445;28;20455;-80
2024/03/01 14:08:11;;;;;;;25.67;23.20;;;;;;;;;;4992524;28;20482;-80
2024/03/01 14:10:40;;;;;;;26.40;24.40;;;;;;;;;;4977978;28;20443;-80
2024/03/01 14:13:08;;;;;;;26.27;24.07;;;;;;;;;;4987180;28;20523;-81
2024/03/01 14:15:35;;;;;;;24.90;23.10;;;;;;;;;;4982814;28;20465;-79
2024/03/01 14:18:03;;;;;;;27.10;24.70;;;;;;;;;;4996955;28;20907;-81
2024/03/01 14:20:30;;;;;;;26.00;24.00;;;;;;;;;;4997232;28;20550;-81
2024/03/01 14:22:57;;;;;;;25.73;23.97;;;;;;;;;;4997734;28;20453;-81
2024/03/01 14:25:24;;;;;;;24.47;22.67;;;;;;;;;;4994481;28;20452;-80
2024/03/01 14:27:54;;;;;;;26.80;24.60;;;;;;;;;;4988058;28;20465;-81
2024/03/01 14:30:24;;;;;;;23.90;22.10;;;;;;;;;;4987876;28;20428;-81
2024/03/01 14:32:52;;;;;;;26.90;24.70;;;;;;;;;;4984332;28;20433;-85
2024/03/01 14:35:19;;;;;;;24.80;23.00;;;;;;;;;;4979471;28;20461;-82